sensor_id;sensor_type;location;lat;lon;timestamp;P1;durP1;ratioP1;P2;durP2;ratioP2
6143;SDS011;3103;49.492;8.474;2022-12-29T00:02:22;6.43;;;2.83;;
6143;SDS011;3103;49.492;8.474;2022-12-29T00:04:49;6.40;;;3.63;;
6143;SDS011;3103;49.492;8.474;2022-12-29T00:07:17;3.07;;;2.53;;
6143;SDS011;3103;49.492;8.474;2022-12-29T00:09:44;5.53;;;2.80;;
6143;SDS011;3103;49.492;8.474;2022-12-29T00:12:11;6.73;;;2.90;;
6143;SDS011;3103;49.492;8.474;2022-12-29T00:14:38;3.77;;;2.30;;
6143;SDS011;3103;49.492;8.474;2022-12-29T00:17:23;5.03;;;2.60;;
6143;SDS011;3103;49.492;8.474;2022-12-29T00:19:50;3.63;;;2.40;;
6143;SDS011;3103;49.492;8.474;2022-12-29T00:22:35;3.43;;;1.97;;
6143;SDS011;3103;49.492;8.474;2022-12-29T00:25:20;3.90;;;2.50;;
6143;SDS011;3103;49.492;8.474;2022-12-29T00:28:08;2.73;;;2.13;;
6143;SDS011;3103;49.492;8.474;2022-12-29T00:31:11;2.30;;;2.00;;
6143;SDS011;3103;49.492;8.474;2022-12-29T00:33:57;16.30;;;2.80;;
6143;SDS011;3103;49.492;8.474;2022-12-29T00:36:43;5.73;;;2.73;;
6143;SDS011;3103;49.492;8.474;2022-12-29T00:39:14;4.60;;;2.30;;
6143;SDS011;3103;49.492;8.474;2022-12-29T00:42:06;6.43;;;2.50;;
6143;SDS011;3103;49.492;8.474;2022-12-29T00:44:46;5.93;;;2.40;;
6143;SDS011;3103;49.492;8.474;2022-12-29T00:47:13;4.67;;;2.20;;
6143;SDS011;3103;49.492;8.474;2022-12-29T00:49:39;4.20;;;2.50;;
6143;SDS011;3103;49.492;8.474;2022-12-29T00:52:07;2.83;;;2.40;;
6143;SDS011;3103;49.492;8.474;2022-12-29T00:54:36;3.23;;;2.27;;
6143;SDS011;3103;49.492;8.474;2022-12-29T00:57:05;4.00;;;3.00;;
6143;SDS011;3103;49.492;8.474;2022-12-29T00:59:40;3.53;;;2.80;;
6143;SDS011;3103;49.492;8.474;2022-12-29T01:02:08;3.50;;;2.53;;
6143;SDS011;3103;49.492;8.474;2022-12-29T01:04:36;6.07;;;3.30;;
6143;SDS011;3103;49.492;8.474;2022-12-29T01:07:03;4.73;;;2.50;;
6143;SDS011;3103;49.492;8.474;2022-12-29T01:09:31;2.17;;;1.93;;
6143;SDS011;3103;49.492;8.474;2022-12-29T01:12:16;2.80;;;2.30;;
6143;SDS011;3103;49.492;8.474;2022-12-29T01:14:43;4.07;;;2.40;;
6143;SDS011;3103;49.492;8.474;2022-12-29T01:17:10;3.43;;;2.30;;
6143;SDS011;3103;49.492;8.474;2022-12-29T01:19:37;3.03;;;2.50;;
6143;SDS011;3103;49.492;8.474;2022-12-29T01:22:04;5.13;;;2.97;;
6143;SDS011;3103;49.492;8.474;2022-12-29T01:24:31;3.97;;;2.30;;
6143;SDS011;3103;49.492;8.474;2022-12-29T01:26:58;5.73;;;4.17;;
6143;SDS011;3103;49.492;8.474;2022-12-29T01:29:24;7.83;;;4.30;;
6143;SDS011;3103;49.492;8.474;2022-12-29T01:31:51;14.63;;;7.73;;
6143;SDS011;3103;49.492;8.474;2022-12-29T01:34:18;6.13;;;3.77;;
6143;SDS011;3103;49.492;8.474;2022-12-29T01:36:45;6.53;;;4.20;;
6143;SDS011;3103;49.492;8.474;2022-12-29T01:39:12;4.27;;;2.40;;
6143;SDS011;3103;49.492;8.474;2022-12-29T01:41:41;3.70;;;2.17;;
6143;SDS011;3103;49.492;8.474;2022-12-29T01:47:19;6.83;;;2.50;;
6143;SDS011;3103;49.492;8.474;2022-12-29T01:49:55;7.40;;;2.47;;
6143;SDS011;3103;49.492;8.474;2022-12-29T01:52:24;5.33;;;2.83;;
6143;SDS011;3103;49.492;8.474;2022-12-29T01:54:54;3.70;;;2.00;;
6143;SDS011;3103;49.492;8.474;2022-12-29T01:57:25;4.17;;;2.53;;
6143;SDS011;3103;49.492;8.474;2022-12-29T01:59:57;3.07;;;2.20;;
6143;SDS011;3103;49.492;8.474;2022-12-29T02:02:38;2.97;;;2.13;;
6143;SDS011;3103;49.492;8.474;2022-12-29T02:05:09;3.97;;;2.00;;
6143;SDS011;3103;49.492;8.474;2022-12-29T02:07:40;5.23;;;2.90;;
6143;SDS011;3103;49.492;8.474;2022-12-29T02:10:09;2.13;;;1.93;;
6143;SDS011;3103;49.492;8.474;2022-12-29T02:12:36;4.23;;;2.30;;
6143;SDS011;3103;49.492;8.474;2022-12-29T02:15:03;2.97;;;2.03;;
6143;SDS011;3103;49.492;8.474;2022-12-29T02:20:39;2.13;;;1.73;;
6143;SDS011;3103;49.492;8.474;2022-12-29T02:23:25;5.07;;;2.80;;
6143;SDS011;3103;49.492;8.474;2022-12-29T02:29:06;3.10;;;2.40;;
6143;SDS011;3103;49.492;8.474;2022-12-29T02:32:01;2.80;;;1.90;;
6143;SDS011;3103;49.492;8.474;2022-12-29T02:34:47;2.20;;;2.00;;
6143;SDS011;3103;49.492;8.474;2022-12-29T02:40:20;4.93;;;2.30;;
6143;SDS011;3103;49.492;8.474;2022-12-29T02:43:37;2.37;;;2.03;;
6143;SDS011;3103;49.492;8.474;2022-12-29T02:45:55;2.00;;;1.77;;
6143;SDS011;3103;49.492;8.474;2022-12-29T02:48:27;3.73;;;2.20;;
6143;SDS011;3103;49.492;8.474;2022-12-29T02:51:00;2.67;;;1.87;;
6143;SDS011;3103;49.492;8.474;2022-12-29T02:53:30;1.70;;;1.60;;
6143;SDS011;3103;49.492;8.474;2022-12-29T02:56:19;3.17;;;2.20;;
6143;SDS011;3103;49.492;8.474;2022-12-29T02:58:46;5.07;;;3.10;;
6143;SDS011;3103;49.492;8.474;2022-12-29T03:09:43;2.20;;;2.00;;
6143;SDS011;3103;49.492;8.474;2022-12-29T03:14:57;7.10;;;2.07;;
6143;SDS011;3103;49.492;8.474;2022-12-29T03:17:51;2.40;;;2.07;;
6143;SDS011;3103;49.492;8.474;2022-12-29T03:20:45;2.23;;;2.00;;
6143;SDS011;3103;49.492;8.474;2022-12-29T03:23:18;4.03;;;2.40;;
6143;SDS011;3103;49.492;8.474;2022-12-29T03:25:48;3.00;;;2.33;;
6143;SDS011;3103;49.492;8.474;2022-12-29T03:28:22;1.90;;;1.80;;
6143;SDS011;3103;49.492;8.474;2022-12-29T03:30:53;3.00;;;2.20;;
6143;SDS011;3103;49.492;8.474;2022-12-29T03:33:23;2.10;;;1.93;;
6143;SDS011;3103;49.492;8.474;2022-12-29T03:35:53;2.43;;;1.90;;
6143;SDS011;3103;49.492;8.474;2022-12-29T03:38:33;3.53;;;2.47;;
6143;SDS011;3103;49.492;8.474;2022-12-29T03:41:05;2.87;;;2.50;;
6143;SDS011;3103;49.492;8.474;2022-12-29T03:43:35;2.10;;;1.83;;
6143;SDS011;3103;49.492;8.474;2022-12-29T03:46:02;4.20;;;2.17;;
6143;SDS011;3103;49.492;8.474;2022-12-29T03:48:29;3.37;;;1.80;;
6143;SDS011;3103;49.492;8.474;2022-12-29T03:50:56;2.20;;;2.00;;
6143;SDS011;3103;49.492;8.474;2022-12-29T03:53:22;2.20;;;1.63;;
6143;SDS011;3103;49.492;8.474;2022-12-29T03:55:49;2.20;;;1.97;;
6143;SDS011;3103;49.492;8.474;2022-12-29T03:58:16;2.27;;;2.07;;
6143;SDS011;3103;49.492;8.474;2022-12-29T04:01:06;4.07;;;1.70;;
6143;SDS011;3103;49.492;8.474;2022-12-29T04:03:36;2.87;;;2.20;;
6143;SDS011;3103;49.492;8.474;2022-12-29T04:06:04;3.70;;;2.20;;
6143;SDS011;3103;49.492;8.474;2022-12-29T04:08:55;2.70;;;2.03;;
6143;SDS011;3103;49.492;8.474;2022-12-29T04:11:22;5.73;;;1.87;;
6143;SDS011;3103;49.492;8.474;2022-12-29T04:13:57;1.90;;;1.60;;
6143;SDS011;3103;49.492;8.474;2022-12-29T04:16:25;2.00;;;1.80;;
6143;SDS011;3103;49.492;8.474;2022-12-29T04:18:52;3.60;;;2.20;;
6143;SDS011;3103;49.492;8.474;2022-12-29T04:21:19;2.53;;;2.13;;
6143;SDS011;3103;49.492;8.474;2022-12-29T04:23:47;2.43;;;1.77;;
6143;SDS011;3103;49.492;8.474;2022-12-29T04:26:15;1.90;;;1.70;;
6143;SDS011;3103;49.492;8.474;2022-12-29T04:28:53;3.27;;;1.70;;
6143;SDS011;3103;49.492;8.474;2022-12-29T04:31:32;3.87;;;1.80;;
6143;SDS011;3103;49.492;8.474;2022-12-29T04:34:00;3.47;;;1.80;;
6143;SDS011;3103;49.492;8.474;2022-12-29T04:36:28;1.60;;;1.50;;
6143;SDS011;3103;49.492;8.474;2022-12-29T04:38:56;3.03;;;2.03;;
6143;SDS011;3103;49.492;8.474;2022-12-29T04:41:23;2.40;;;1.60;;
6143;SDS011;3103;49.492;8.474;2022-12-29T04:43:50;2.13;;;1.57;;
6143;SDS011;3103;49.492;8.474;2022-12-29T04:46:36;2.00;;;1.80;;
6143;SDS011;3103;49.492;8.474;2022-12-29T04:49:28;1.67;;;1.40;;
6143;SDS011;3103;49.492;8.474;2022-12-29T04:52:06;3.53;;;1.60;;
6143;SDS011;3103;49.492;8.474;2022-12-29T04:54:36;2.27;;;2.03;;
6143;SDS011;3103;49.492;8.474;2022-12-29T04:57:11;3.00;;;2.10;;
6143;SDS011;3103;49.492;8.474;2022-12-29T04:59:44;2.37;;;1.80;;
6143;SDS011;3103;49.492;8.474;2022-12-29T05:02:11;4.60;;;2.17;;
6143;SDS011;3103;49.492;8.474;2022-12-29T05:04:38;2.00;;;1.80;;
6143;SDS011;3103;49.492;8.474;2022-12-29T05:07:05;1.90;;;1.80;;
6143;SDS011;3103;49.492;8.474;2022-12-29T05:09:33;1.77;;;1.60;;
6143;SDS011;3103;49.492;8.474;2022-12-29T05:12:00;1.70;;;1.60;;
6143;SDS011;3103;49.492;8.474;2022-12-29T05:14:28;3.20;;;2.87;;
6143;SDS011;3103;49.492;8.474;2022-12-29T05:16:55;1.93;;;1.83;;
6143;SDS011;3103;49.492;8.474;2022-12-29T05:19:24;1.80;;;1.70;;
6143;SDS011;3103;49.492;8.474;2022-12-29T05:21:51;1.90;;;1.80;;
6143;SDS011;3103;49.492;8.474;2022-12-29T05:24:18;2.57;;;1.73;;
6143;SDS011;3103;49.492;8.474;2022-12-29T05:26:44;1.80;;;1.70;;
6143;SDS011;3103;49.492;8.474;2022-12-29T05:29:30;1.50;;;1.40;;
6143;SDS011;3103;49.492;8.474;2022-12-29T05:31:57;3.10;;;1.80;;
6143;SDS011;3103;49.492;8.474;2022-12-29T05:34:24;2.80;;;2.30;;
6143;SDS011;3103;49.492;8.474;2022-12-29T05:36:51;2.40;;;1.90;;
6143;SDS011;3103;49.492;8.474;2022-12-29T05:39:17;2.10;;;1.70;;
6143;SDS011;3103;49.492;8.474;2022-12-29T05:41:49;3.17;;;1.90;;
6143;SDS011;3103;49.492;8.474;2022-12-29T05:44:46;1.70;;;1.60;;
6143;SDS011;3103;49.492;8.474;2022-12-29T05:47:23;2.70;;;1.80;;
6143;SDS011;3103;49.492;8.474;2022-12-29T05:50:09;2.57;;;1.80;;
6143;SDS011;3103;49.492;8.474;2022-12-29T05:52:54;3.80;;;2.87;;
6143;SDS011;3103;49.492;8.474;2022-12-29T05:55:21;3.33;;;1.63;;
6143;SDS011;3103;49.492;8.474;2022-12-29T05:57:51;2.90;;;1.63;;
6143;SDS011;3103;49.492;8.474;2022-12-29T06:00:17;1.77;;;1.67;;
6143;SDS011;3103;49.492;8.474;2022-12-29T06:02:45;2.63;;;2.10;;
6143;SDS011;3103;49.492;8.474;2022-12-29T06:05:14;2.70;;;2.10;;
6143;SDS011;3103;49.492;8.474;2022-12-29T06:07:41;1.97;;;1.80;;
6143;SDS011;3103;49.492;8.474;2022-12-29T06:10:08;3.37;;;2.00;;
6143;SDS011;3103;49.492;8.474;2022-12-29T06:12:43;3.83;;;1.90;;
6143;SDS011;3103;49.492;8.474;2022-12-29T06:15:10;2.93;;;1.70;;
6143;SDS011;3103;49.492;8.474;2022-12-29T06:17:39;3.23;;;1.70;;
6143;SDS011;3103;49.492;8.474;2022-12-29T06:20:07;3.80;;;1.93;;
6143;SDS011;3103;49.492;8.474;2022-12-29T06:22:34;2.70;;;1.80;;
6143;SDS011;3103;49.492;8.474;2022-12-29T06:25:02;4.90;;;2.23;;
6143;SDS011;3103;49.492;8.474;2022-12-29T06:27:33;1.97;;;1.60;;
6143;SDS011;3103;49.492;8.474;2022-12-29T06:29:59;2.43;;;1.80;;
6143;SDS011;3103;49.492;8.474;2022-12-29T06:32:30;1.83;;;1.60;;
6143;SDS011;3103;49.492;8.474;2022-12-29T06:35:03;2.57;;;1.83;;
6143;SDS011;3103;49.492;8.474;2022-12-29T06:37:31;1.87;;;1.70;;
6143;SDS011;3103;49.492;8.474;2022-12-29T06:39:58;1.93;;;1.80;;
6143;SDS011;3103;49.492;8.474;2022-12-29T06:42:32;2.17;;;1.97;;
6143;SDS011;3103;49.492;8.474;2022-12-29T06:45:15;2.93;;;1.67;;
6143;SDS011;3103;49.492;8.474;2022-12-29T06:47:42;2.30;;;2.10;;
6143;SDS011;3103;49.492;8.474;2022-12-29T06:50:09;2.03;;;1.70;;
6143;SDS011;3103;49.492;8.474;2022-12-29T06:52:36;2.10;;;1.90;;
6143;SDS011;3103;49.492;8.474;2022-12-29T06:55:02;2.40;;;1.90;;
6143;SDS011;3103;49.492;8.474;2022-12-29T06:57:29;3.40;;;2.23;;
6143;SDS011;3103;49.492;8.474;2022-12-29T06:59:56;3.00;;;1.77;;
6143;SDS011;3103;49.492;8.474;2022-12-29T07:02:23;2.20;;;2.00;;
6143;SDS011;3103;49.492;8.474;2022-12-29T07:04:52;3.53;;;2.17;;
6143;SDS011;3103;49.492;8.474;2022-12-29T07:07:20;3.37;;;2.00;;
6143;SDS011;3103;49.492;8.474;2022-12-29T07:09:47;1.60;;;1.50;;
6143;SDS011;3103;49.492;8.474;2022-12-29T07:12:13;6.13;;;2.77;;
6143;SDS011;3103;49.492;8.474;2022-12-29T07:14:40;1.87;;;1.70;;
6143;SDS011;3103;49.492;8.474;2022-12-29T07:17:09;5.43;;;2.13;;
6143;SDS011;3103;49.492;8.474;2022-12-29T07:19:36;2.00;;;1.80;;
6143;SDS011;3103;49.492;8.474;2022-12-29T07:22:02;6.97;;;1.90;;
6143;SDS011;3103;49.492;8.474;2022-12-29T07:24:29;2.63;;;1.63;;
6143;SDS011;3103;49.492;8.474;2022-12-29T07:26:56;2.17;;;1.80;;
6143;SDS011;3103;49.492;8.474;2022-12-29T07:29:22;4.30;;;2.03;;
6143;SDS011;3103;49.492;8.474;2022-12-29T07:31:49;5.37;;;1.53;;
6143;SDS011;3103;49.492;8.474;2022-12-29T07:34:16;3.80;;;2.00;;
6143;SDS011;3103;49.492;8.474;2022-12-29T07:36:43;2.73;;;1.80;;
6143;SDS011;3103;49.492;8.474;2022-12-29T07:39:09;4.27;;;1.80;;
6143;SDS011;3103;49.492;8.474;2022-12-29T07:41:37;3.10;;;1.70;;
6143;SDS011;3103;49.492;8.474;2022-12-29T07:44:08;4.47;;;1.90;;
6143;SDS011;3103;49.492;8.474;2022-12-29T07:46:58;2.30;;;2.10;;
6143;SDS011;3103;49.492;8.474;2022-12-29T07:49:26;2.70;;;1.77;;
6143;SDS011;3103;49.492;8.474;2022-12-29T07:51:52;3.27;;;2.10;;
6143;SDS011;3103;49.492;8.474;2022-12-29T07:54:19;3.53;;;1.87;;
6143;SDS011;3103;49.492;8.474;2022-12-29T07:56:46;2.53;;;1.70;;
6143;SDS011;3103;49.492;8.474;2022-12-29T07:59:13;2.87;;;2.20;;
6143;SDS011;3103;49.492;8.474;2022-12-29T08:01:39;4.23;;;2.03;;
6143;SDS011;3103;49.492;8.474;2022-12-29T08:04:06;3.03;;;2.10;;
6143;SDS011;3103;49.492;8.474;2022-12-29T08:06:33;4.77;;;2.30;;
6143;SDS011;3103;49.492;8.474;2022-12-29T08:09:00;3.17;;;2.13;;
6143;SDS011;3103;49.492;8.474;2022-12-29T08:11:37;2.97;;;2.10;;
6143;SDS011;3103;49.492;8.474;2022-12-29T08:14:04;2.37;;;1.80;;
6143;SDS011;3103;49.492;8.474;2022-12-29T08:16:31;4.00;;;2.27;;
6143;SDS011;3103;49.492;8.474;2022-12-29T08:18:59;2.97;;;2.40;;
6143;SDS011;3103;49.492;8.474;2022-12-29T08:21:28;3.63;;;2.20;;
6143;SDS011;3103;49.492;8.474;2022-12-29T08:23:56;3.57;;;2.20;;
6143;SDS011;3103;49.492;8.474;2022-12-29T08:26:22;4.90;;;2.10;;
6143;SDS011;3103;49.492;8.474;2022-12-29T08:28:51;3.20;;;2.60;;
6143;SDS011;3103;49.492;8.474;2022-12-29T08:31:18;3.07;;;2.50;;
6143;SDS011;3103;49.492;8.474;2022-12-29T08:33:46;5.47;;;2.60;;
6143;SDS011;3103;49.492;8.474;2022-12-29T08:36:12;5.13;;;3.20;;
6143;SDS011;3103;49.492;8.474;2022-12-29T08:38:39;4.30;;;2.90;;
6143;SDS011;3103;49.492;8.474;2022-12-29T08:41:06;4.43;;;2.90;;
6143;SDS011;3103;49.492;8.474;2022-12-29T08:43:33;3.83;;;2.60;;
6143;SDS011;3103;49.492;8.474;2022-12-29T08:45:59;5.33;;;3.27;;
6143;SDS011;3103;49.492;8.474;2022-12-29T08:48:26;6.83;;;4.50;;
6143;SDS011;3103;49.492;8.474;2022-12-29T08:50:53;6.03;;;3.60;;
6143;SDS011;3103;49.492;8.474;2022-12-29T08:53:20;6.07;;;3.33;;
6143;SDS011;3103;49.492;8.474;2022-12-29T08:55:51;12.83;;;6.43;;
6143;SDS011;3103;49.492;8.474;2022-12-29T08:58:33;8.20;;;5.20;;
6143;SDS011;3103;49.492;8.474;2022-12-29T09:01:00;3.80;;;3.07;;
6143;SDS011;3103;49.492;8.474;2022-12-29T09:03:27;5.97;;;3.37;;
6143;SDS011;3103;49.492;8.474;2022-12-29T09:06:14;12.00;;;7.07;;
6143;SDS011;3103;49.492;8.474;2022-12-29T09:08:43;4.20;;;2.70;;
6143;SDS011;3103;49.492;8.474;2022-12-29T09:13:39;5.70;;;2.90;;
6143;SDS011;3103;49.492;8.474;2022-12-29T09:16:06;5.03;;;3.10;;
6143;SDS011;3103;49.492;8.474;2022-12-29T09:18:33;4.07;;;2.50;;
6143;SDS011;3103;49.492;8.474;2022-12-29T09:21:02;9.07;;;3.30;;
6143;SDS011;3103;49.492;8.474;2022-12-29T09:23:31;4.33;;;2.70;;
6143;SDS011;3103;49.492;8.474;2022-12-29T09:25:58;5.37;;;3.10;;
6143;SDS011;3103;49.492;8.474;2022-12-29T09:28:25;11.97;;;5.87;;
6143;SDS011;3103;49.492;8.474;2022-12-29T09:30:52;10.67;;;5.63;;
6143;SDS011;3103;49.492;8.474;2022-12-29T09:33:19;9.47;;;6.80;;
6143;SDS011;3103;49.492;8.474;2022-12-29T09:35:49;6.20;;;3.80;;
6143;SDS011;3103;49.492;8.474;2022-12-29T09:38:17;6.30;;;3.80;;
6143;SDS011;3103;49.492;8.474;2022-12-29T09:40:46;7.77;;;3.90;;
6143;SDS011;3103;49.492;8.474;2022-12-29T09:43:32;12.33;;;8.90;;
6143;SDS011;3103;49.492;8.474;2022-12-29T09:46:27;4.67;;;3.70;;
6143;SDS011;3103;49.492;8.474;2022-12-29T09:51:46;4.37;;;3.03;;
6143;SDS011;3103;49.492;8.474;2022-12-29T09:54:20;4.23;;;3.27;;
6143;SDS011;3103;49.492;8.474;2022-12-29T09:56:53;4.83;;;3.50;;
6143;SDS011;3103;49.492;8.474;2022-12-29T09:59:22;4.77;;;2.80;;
6143;SDS011;3103;49.492;8.474;2022-12-29T10:01:58;3.83;;;2.73;;
6143;SDS011;3103;49.492;8.474;2022-12-29T10:04:39;2.47;;;2.10;;
6143;SDS011;3103;49.492;8.474;2022-12-29T10:07:21;4.50;;;2.40;;
6143;SDS011;3103;49.492;8.474;2022-12-29T10:12:53;2.80;;;2.07;;
6143;SDS011;3103;49.492;8.474;2022-12-29T10:15:39;3.93;;;2.57;;
6143;SDS011;3103;49.492;8.474;2022-12-29T10:24:12;2.67;;;2.10;;
6143;SDS011;3103;49.492;8.474;2022-12-29T10:26:40;2.60;;;2.30;;
6143;SDS011;3103;49.492;8.474;2022-12-29T10:32:31;3.23;;;2.30;;
6143;SDS011;3103;49.492;8.474;2022-12-29T10:35:12;3.97;;;2.30;;
6143;SDS011;3103;49.492;8.474;2022-12-29T10:43:25;6.57;;;2.67;;
6143;SDS011;3103;49.492;8.474;2022-12-29T10:45:53;2.60;;;2.10;;
6143;SDS011;3103;49.492;8.474;2022-12-29T10:48:26;5.20;;;2.40;;
6143;SDS011;3103;49.492;8.474;2022-12-29T10:50:58;3.07;;;2.27;;
6143;SDS011;3103;49.492;8.474;2022-12-29T10:53:44;3.03;;;2.30;;
6143;SDS011;3103;49.492;8.474;2022-12-29T10:59:01;4.00;;;2.60;;
6143;SDS011;3103;49.492;8.474;2022-12-29T11:01:42;2.20;;;1.80;;
6143;SDS011;3103;49.492;8.474;2022-12-29T11:07:33;7.80;;;3.00;;
6143;SDS011;3103;49.492;8.474;2022-12-29T11:10:28;4.50;;;2.83;;
6143;SDS011;3103;49.492;8.474;2022-12-29T11:13:04;6.53;;;3.50;;
6143;SDS011;3103;49.492;8.474;2022-12-29T11:15:51;5.37;;;3.40;;
6143;SDS011;3103;49.492;8.474;2022-12-29T11:18:20;6.43;;;4.10;;
6143;SDS011;3103;49.492;8.474;2022-12-29T11:20:53;7.07;;;3.10;;
6143;SDS011;3103;49.492;8.474;2022-12-29T11:23:23;3.50;;;2.83;;
6143;SDS011;3103;49.492;8.474;2022-12-29T11:26:06;12.83;;;6.30;;
6143;SDS011;3103;49.492;8.474;2022-12-29T11:28:44;4.60;;;2.90;;
6143;SDS011;3103;49.492;8.474;2022-12-29T11:31:16;6.00;;;4.37;;
6143;SDS011;3103;49.492;8.474;2022-12-29T11:33:44;7.73;;;4.13;;
6143;SDS011;3103;49.492;8.474;2022-12-29T11:36:15;5.03;;;3.67;;
6143;SDS011;3103;49.492;8.474;2022-12-29T11:38:47;3.53;;;2.90;;
6143;SDS011;3103;49.492;8.474;2022-12-29T11:41:21;3.93;;;2.70;;
6143;SDS011;3103;49.492;8.474;2022-12-29T11:43:50;7.00;;;4.23;;
6143;SDS011;3103;49.492;8.474;2022-12-29T11:46:23;9.13;;;3.43;;
6143;SDS011;3103;49.492;8.474;2022-12-29T11:48:54;4.80;;;2.70;;
6143;SDS011;3103;49.492;8.474;2022-12-29T11:51:34;5.77;;;3.23;;
6143;SDS011;3103;49.492;8.474;2022-12-29T11:54:09;4.27;;;3.33;;
6143;SDS011;3103;49.492;8.474;2022-12-29T11:56:48;4.33;;;2.77;;
6143;SDS011;3103;49.492;8.474;2022-12-29T12:02:38;5.93;;;2.97;;
6143;SDS011;3103;49.492;8.474;2022-12-29T12:05:11;6.53;;;4.10;;
6143;SDS011;3103;49.492;8.474;2022-12-29T12:07:45;6.93;;;3.20;;
6143;SDS011;3103;49.492;8.474;2022-12-29T12:10:17;3.63;;;2.60;;
6143;SDS011;3103;49.492;8.474;2022-12-29T12:12:55;7.30;;;3.60;;
6143;SDS011;3103;49.492;8.474;2022-12-29T12:15:30;3.10;;;2.30;;
6143;SDS011;3103;49.492;8.474;2022-12-29T12:18:16;3.90;;;2.70;;
6143;SDS011;3103;49.492;8.474;2022-12-29T12:21:45;5.63;;;2.20;;
6143;SDS011;3103;49.492;8.474;2022-12-29T12:26:30;3.53;;;2.63;;
6143;SDS011;3103;49.492;8.474;2022-12-29T12:29:12;3.50;;;2.50;;
6143;SDS011;3103;49.492;8.474;2022-12-29T12:31:47;8.17;;;2.40;;
6143;SDS011;3103;49.492;8.474;2022-12-29T12:34:24;4.73;;;2.60;;
6143;SDS011;3103;49.492;8.474;2022-12-29T12:40:35;4.37;;;2.70;;
6143;SDS011;3103;49.492;8.474;2022-12-29T12:45:43;3.10;;;1.80;;
6143;SDS011;3103;49.492;8.474;2022-12-29T12:48:42;8.40;;;3.30;;
6143;SDS011;3103;49.492;8.474;2022-12-29T12:51:50;4.03;;;2.43;;
6143;SDS011;3103;49.492;8.474;2022-12-29T12:57:40;3.10;;;2.47;;
6143;SDS011;3103;49.492;8.474;2022-12-29T13:00:32;3.50;;;2.67;;
6143;SDS011;3103;49.492;8.474;2022-12-29T13:06:41;4.53;;;2.83;;
6143;SDS011;3103;49.492;8.474;2022-12-29T13:17:36;2.80;;;2.10;;
6143;SDS011;3103;49.492;8.474;2022-12-29T13:23:14;2.43;;;1.70;;
6143;SDS011;3103;49.492;8.474;2022-12-29T13:28:25;2.03;;;1.80;;
6143;SDS011;3103;49.492;8.474;2022-12-29T13:31:15;3.47;;;2.00;;
6143;SDS011;3103;49.492;8.474;2022-12-29T13:33:53;1.63;;;1.53;;
6143;SDS011;3103;49.492;8.474;2022-12-29T13:41:34;6.83;;;2.13;;
6143;SDS011;3103;49.492;8.474;2022-12-29T13:44:06;2.00;;;1.70;;
6143;SDS011;3103;49.492;8.474;2022-12-29T13:46:42;2.53;;;1.73;;
6143;SDS011;3103;49.492;8.474;2022-12-29T13:51:49;3.43;;;1.90;;
6143;SDS011;3103;49.492;8.474;2022-12-29T13:57:06;2.80;;;1.50;;
6143;SDS011;3103;49.492;8.474;2022-12-29T13:59:54;2.43;;;1.80;;
6143;SDS011;3103;49.492;8.474;2022-12-29T14:02:42;2.63;;;1.87;;
6143;SDS011;3103;49.492;8.474;2022-12-29T14:07:46;3.87;;;1.87;;
6143;SDS011;3103;49.492;8.474;2022-12-29T14:10:25;2.07;;;1.70;;
6143;SDS011;3103;49.492;8.474;2022-12-29T14:13:09;2.67;;;2.17;;
6143;SDS011;3103;49.492;8.474;2022-12-29T14:15:39;2.83;;;1.73;;
6143;SDS011;3103;49.492;8.474;2022-12-29T14:18:12;2.17;;;1.80;;
6143;SDS011;3103;49.492;8.474;2022-12-29T14:20:59;3.00;;;1.70;;
6143;SDS011;3103;49.492;8.474;2022-12-29T14:28:37;5.53;;;3.70;;
6143;SDS011;3103;49.492;8.474;2022-12-29T14:33:41;7.20;;;4.07;;
6143;SDS011;3103;49.492;8.474;2022-12-29T14:39:24;6.97;;;4.30;;
6143;SDS011;3103;49.492;8.474;2022-12-29T14:44:48;13.93;;;7.77;;
6143;SDS011;3103;49.492;8.474;2022-12-29T14:47:41;4.63;;;3.60;;
6143;SDS011;3103;49.492;8.474;2022-12-29T14:52:50;4.40;;;3.20;;
6143;SDS011;3103;49.492;8.474;2022-12-29T14:58:05;8.83;;;3.87;;
6143;SDS011;3103;49.492;8.474;2022-12-29T15:00:39;8.07;;;3.57;;
6143;SDS011;3103;49.492;8.474;2022-12-29T15:03:12;6.43;;;3.40;;
6143;SDS011;3103;49.492;8.474;2022-12-29T15:05:44;9.10;;;4.40;;
6143;SDS011;3103;49.492;8.474;2022-12-29T15:08:19;6.10;;;3.03;;
6143;SDS011;3103;49.492;8.474;2022-12-29T15:10:56;6.97;;;3.67;;
6143;SDS011;3103;49.492;8.474;2022-12-29T15:13:35;5.73;;;3.33;;
6143;SDS011;3103;49.492;8.474;2022-12-29T15:16:04;5.40;;;2.90;;
6143;SDS011;3103;49.492;8.474;2022-12-29T15:18:32;4.57;;;2.23;;
6143;SDS011;3103;49.492;8.474;2022-12-29T15:21:00;3.53;;;2.50;;
6143;SDS011;3103;49.492;8.474;2022-12-29T15:23:30;5.03;;;2.57;;
6143;SDS011;3103;49.492;8.474;2022-12-29T15:26:00;4.30;;;2.33;;
6143;SDS011;3103;49.492;8.474;2022-12-29T15:28:36;4.47;;;2.57;;
6143;SDS011;3103;49.492;8.474;2022-12-29T15:31:14;4.90;;;3.37;;
6143;SDS011;3103;49.492;8.474;2022-12-29T15:34:02;3.40;;;2.37;;
6143;SDS011;3103;49.492;8.474;2022-12-29T15:36:37;3.40;;;2.17;;
6143;SDS011;3103;49.492;8.474;2022-12-29T15:39:18;6.10;;;2.93;;
6143;SDS011;3103;49.492;8.474;2022-12-29T15:41:52;8.63;;;3.13;;
6143;SDS011;3103;49.492;8.474;2022-12-29T15:44:36;5.67;;;3.00;;
6143;SDS011;3103;49.492;8.474;2022-12-29T15:47:19;4.93;;;2.23;;
6143;SDS011;3103;49.492;8.474;2022-12-29T15:49:49;6.37;;;2.80;;
6143;SDS011;3103;49.492;8.474;2022-12-29T15:52:20;3.43;;;2.30;;
6143;SDS011;3103;49.492;8.474;2022-12-29T15:54:48;6.70;;;2.77;;
6143;SDS011;3103;49.492;8.474;2022-12-29T15:57:24;4.70;;;2.70;;
6143;SDS011;3103;49.492;8.474;2022-12-29T15:59:53;8.60;;;5.27;;
6143;SDS011;3103;49.492;8.474;2022-12-29T16:02:21;6.17;;;4.33;;
6143;SDS011;3103;49.492;8.474;2022-12-29T16:04:50;11.13;;;6.30;;
6143;SDS011;3103;49.492;8.474;2022-12-29T16:07:38;18.90;;;5.20;;
6143;SDS011;3103;49.492;8.474;2022-12-29T16:10:35;7.50;;;3.53;;
6143;SDS011;3103;49.492;8.474;2022-12-29T16:16:13;16.00;;;6.97;;
6143;SDS011;3103;49.492;8.474;2022-12-29T16:19:12;8.70;;;5.43;;
6143;SDS011;3103;49.492;8.474;2022-12-29T16:21:52;9.70;;;5.50;;
6143;SDS011;3103;49.492;8.474;2022-12-29T16:24:20;9.60;;;5.73;;
6143;SDS011;3103;49.492;8.474;2022-12-29T16:27:36;11.93;;;4.53;;
6143;SDS011;3103;49.492;8.474;2022-12-29T16:29:49;6.87;;;4.40;;
6143;SDS011;3103;49.492;8.474;2022-12-29T16:32:26;6.80;;;3.00;;
6143;SDS011;3103;49.492;8.474;2022-12-29T16:40:38;7.10;;;3.97;;
6143;SDS011;3103;49.492;8.474;2022-12-29T16:43:22;6.10;;;3.30;;
6143;SDS011;3103;49.492;8.474;2022-12-29T16:48:45;5.97;;;3.17;;
6143;SDS011;3103;49.492;8.474;2022-12-29T16:51:23;4.43;;;2.87;;
6143;SDS011;3103;49.492;8.474;2022-12-29T16:54:02;6.17;;;2.70;;
6143;SDS011;3103;49.492;8.474;2022-12-29T16:56:32;13.30;;;3.80;;
6143;SDS011;3103;49.492;8.474;2022-12-29T16:59:04;6.30;;;3.50;;
6143;SDS011;3103;49.492;8.474;2022-12-29T17:01:35;7.13;;;3.33;;
6143;SDS011;3103;49.492;8.474;2022-12-29T17:04:10;6.93;;;3.47;;
6143;SDS011;3103;49.492;8.474;2022-12-29T17:06:39;7.27;;;3.13;;
6143;SDS011;3103;49.492;8.474;2022-12-29T17:09:40;7.13;;;3.07;;
6143;SDS011;3103;49.492;8.474;2022-12-29T17:12:00;6.50;;;3.37;;
6143;SDS011;3103;49.492;8.474;2022-12-29T17:17:12;9.70;;;3.27;;
6143;SDS011;3103;49.492;8.474;2022-12-29T17:20:05;5.10;;;2.60;;
6143;SDS011;3103;49.492;8.474;2022-12-29T17:22:32;6.07;;;3.83;;
6143;SDS011;3103;49.492;8.474;2022-12-29T17:25:00;17.50;;;7.97;;
6143;SDS011;3103;49.492;8.474;2022-12-29T17:27:37;9.37;;;6.63;;
6143;SDS011;3103;49.492;8.474;2022-12-29T17:30:11;11.93;;;5.73;;
6143;SDS011;3103;49.492;8.474;2022-12-29T17:32:40;11.70;;;5.67;;
6143;SDS011;3103;49.492;8.474;2022-12-29T17:35:15;8.23;;;4.77;;
6143;SDS011;3103;49.492;8.474;2022-12-29T17:37:43;16.60;;;10.43;;
6143;SDS011;3103;49.492;8.474;2022-12-29T17:40:15;8.27;;;4.97;;
6143;SDS011;3103;49.492;8.474;2022-12-29T17:42:44;12.07;;;7.13;;
6143;SDS011;3103;49.492;8.474;2022-12-29T17:47:40;9.03;;;4.70;;
6143;SDS011;3103;49.492;8.474;2022-12-29T17:50:11;5.20;;;2.93;;
6143;SDS011;3103;49.492;8.474;2022-12-29T17:52:42;6.93;;;3.77;;
6143;SDS011;3103;49.492;8.474;2022-12-29T17:55:14;7.00;;;4.73;;
6143;SDS011;3103;49.492;8.474;2022-12-29T17:57:43;7.63;;;3.20;;
6143;SDS011;3103;49.492;8.474;2022-12-29T18:00:28;4.10;;;2.97;;
6143;SDS011;3103;49.492;8.474;2022-12-29T18:02:56;6.13;;;3.00;;
6143;SDS011;3103;49.492;8.474;2022-12-29T18:05:27;5.23;;;2.80;;
6143;SDS011;3103;49.492;8.474;2022-12-29T18:07:56;6.13;;;2.93;;